Station: Gove Airport  

  Atmospheric Gas Attenuation - ITU Rec 676-11   ----------------- dB/100km -----------------
Date Time Temp RH % AH g/m3 Dew Point Wind Direction Speed kph Gust kph Barometer mB Rainfall Since 9am 24GHz 47GHz 76GHz 122GHz 134GHz 241GHz
09/05 06:40 26.2 83 20.43 23.1 15 17 1010.6 0 43.9 42.1 82.6 218.6 242.9 843.8
09/05 06:30 26.3 83 20.55 23.2 17 24 1010.5 0 44.1 42.3 83.0 219.8 244.4 849.2
09/05 06:20 26.3 83 20.55 23.2 20 22 1010.4 0 44.1 42.2 83.0 219.8 244.4 849.1
09/05 06:10 26 84 20.45 23.1 17 19 1010.3 0 44.0 42.2 82.9 219.4 243.8 847.0
09/05 06:00 26.1 84 20.56 23.2 17 20 1010.2 0 44.2 42.4 83.3 220.5 245.2 851.8
09/05 05:50 26 84 20.45 23.1 17 19 1010.2 0 44.0 42.2 82.9 219.3 243.8 846.9
09/05 05:40 25.9 85 20.58 23.2 15 17 1010 0 44.2 42.5 83.6 221.3 246.1 855.1
09/05 05:30 25.7 86 20.59 23.2 13 19 1010 0 44.3 42.6 83.9 222.0 246.9 857.9
09/05 05:20 25.6 86 20.47 23.1 15 17 1010.1 0 44.0 42.4 83.4 220.8 245.4 852.5
09/05 05:10 25.6 86 20.47 23.1 13 15 1010.1 0 44.0 42.4 83.4 220.8 245.4 852.5
09/05 05:00 25.6 85 20.24 22.9 13 17 1010.2 0 43.6 42.0 82.3 217.8 241.8 839.9
09/05 04:50 25.7 85 20.35 23 15 17 1010.2 0 43.8 42.2 82.7 218.9 243.2 844.8
09/05 04:40 25.6 85 20.24 22.9 11 13 1010.3 0 43.6 42.0 82.3 217.8 241.8 840.0
09/05 04:30 25.7 84 20.11 22.8 15 19 1010.2 0 43.3 41.7 81.6 215.8 239.4 831.7
09/05 04:20 25.7 85 20.35 23 13 15 1010.2 0 43.8 42.2 82.7 218.9 243.2 844.8
09/05 04:10 25.7 85 20.35 23 13 17 1010.2 0 43.8 42.2 82.7 218.9 243.2 844.8
09/05 04:00 25.7 85 20.35 23 13 17 1010.2 0 43.8 42.2 82.7 218.9 243.2 844.8
09/05 03:50 25.7 85 20.35 23 15 17 1010.2 0 43.8 42.2 82.7 218.9 243.2 844.8
09/05 03:40 25.7 84 20.11 22.8 13 15 1010.4 0 43.3 41.7 81.6 215.9 239.4 831.8
09/05 03:30 25.7 84 20.11 22.8 13 19 1010.4 0 43.3 41.7 81.6 215.9 239.4 831.8
09/05 03:20 25.7 84 20.11 22.8 15 17 1010.5 0 43.3 41.7 81.6 215.9 239.4 831.8
09/05 03:10 25.7 83 19.87 22.6 13 15 1010.6 0 42.8 41.2 80.4 212.9 235.7 818.8
09/05 03:00 25.9 82 19.85 22.6 15 19 1010.7 0 42.7 41.1 80.1 212.0 234.8 815.6
09/05 02:50 25.9 82 19.85 22.6 15 17 1010.7 0 42.7 41.1 80.1 212.0 234.8 815.6
09/05 02:40 25.9 83 20.09 22.8 17 19 1010.8 0 43.2 41.6 81.3 215.1 238.5 828.7
09/05 02:30 25.8 85 20.46 23.1 17 20 1010.8 0 44.0 42.3 83.2 220.2 244.7 850.1
09/05 02:20 25.7 86 20.59 23.2 15 17 1010.8 0 44.3 42.6 83.9 222.1 247.1 858.4
09/05 02:10 25.7 85 20.35 23 15 17 1010.9 0 43.8 42.2 82.8 219.0 243.3 845.2
09/05 02:00 25.8 85 20.46 23.1 17 22 1010.9 0 44.0 42.3 83.2 220.2 244.7 850.1
09/05 01:50 25.8 85 20.46 23.1 15 19 1011.1 0 44.0 42.4 83.2 220.2 244.7 850.2
09/05 01:40 25.7 85 20.35 23 17 19 1011.1 0 43.8 42.2 82.8 219.1 243.3 845.3
09/05 01:30 25.7 85 20.35 23 17 24 1011.2 0 43.8 42.2 82.8 219.1 243.3 845.4
09/05 01:20 25.8 84 20.22 22.9 17 19 1011.3 0 43.5 41.9 82.0 217.1 241.0 837.2
09/05 01:10 25.7 84 20.11 22.8 17 19 1011.4 0 43.3 41.7 81.6 216.0 239.6 832.4
09/05 01:00 25.7 84 20.11 22.8 17 22 1011.6 0 43.3 41.8 81.6 216.1 239.6 832.5
09/05 00:50 25.8 84 20.22 22.9 19 20 1011.5 0 43.5 41.9 82.1 217.2 241.0 837.3
09/05 00:40 25.9 83 20.09 22.8 19 20 1011.6 0 43.2 41.6 81.3 215.2 238.7 829.2
09/05 00:30 26 82 19.96 22.7 20 24 1011.7 0 42.9 41.3 80.6 213.3 236.3 821.1
09/05 00:20 26.1 82 20.08 22.8 22 24 1011.7 0 43.1 41.5 81.1 214.6 237.9 826.5
09/05 00:10 26.1 82 20.08 22.8 19 20 1011.8 0 43.1 41.5 81.1 214.6 237.9 826.5
09/05 00:00 26.2 82 20.19 22.9 22 28 1011.8 0 43.4 41.7 81.5 215.7 239.3 831.4
08/05 23:50 26.3 82 20.3 23 20 22 1011.9 0 43.6 41.8 81.9 216.8 240.7 836.3
08/05 23:40 26.2 83 20.43 23.1 20 22 1012 0 43.9 42.1 82.7 218.8 243.1 844.6
08/05 23:30 26.2 82 20.19 22.9 22 32 1012 0 43.4 41.7 81.5 215.7 239.3 831.5
08/05 23:20 26.1 84 20.56 23.2 26 28 1012.2 0 44.2 42.4 83.4 220.8 245.5 853.0
08/05 23:10 26.1 84 20.56 23.2 24 28 1012.2 0 44.2 42.4 83.4 220.8 245.5 853.0
08/05 23:00 26.2 83 20.43 23.1 22 32 1012.3 0 43.9 42.1 82.7 218.8 243.1 844.8
08/05 22:50 26.2 84 20.68 23.3 22 22 1012.3 0 44.4 42.6 83.9 222.1 247.1 858.5
08/05 22:40 26.2 84 20.68 23.3 22 28 1012.2 0 44.4 42.6 83.9 222.0 247.1 858.4
08/05 22:30 26 85 20.69 23.3 22 33 1012.1 0 44.5 42.7 84.2 222.7 247.9 861.2
08/05 22:20 25.9 86 20.82 23.4 20 24 1012.1 0 44.7 43.1 84.9 224.7 250.3 869.5
08/05 22:10 26 86 20.94 23.5 20 26 1012.2 0 45.0 43.2 85.4 226.0 251.9 875.1
08/05 22:00 25.9 86 20.82 23.4 24 30 1012.3 0 44.7 43.1 84.9 224.8 250.3 869.6
08/05 21:50 26.2 84 20.68 23.3 24 28 1012.3 0 44.4 42.6 83.9 222.1 247.1 858.5
08/05 21:40 25.9 85 20.58 23.2 20 22 1012.3 0 44.2 42.6 83.7 221.7 246.5 856.4
08/05 21:30 25.6 86 20.47 23.1 19 24 1012.1 0 44.0 42.5 83.5 221.1 245.7 853.6
08/05 21:20 25.5 86 20.36 23 22 24 1012.1 0 43.8 42.4 83.1 220.0 244.3 848.7
08/05 21:10 25.5 86 20.36 23 20 22 1012.1 0 43.8 42.4 83.1 220.0 244.3 848.7
08/05 21:00 25.3 86 20.13 22.8 24 32 1012.2 0 43.3 42.0 82.2 217.6 241.3 838.3
08/05 20:50 25.8 85 20.46 23.1 26 32 1012 0 44.0 42.4 83.3 220.4 244.9 850.8
08/05 20:40 26.2 82 20.19 22.9 28 32 1012 0 43.4 41.7 81.5 215.7 239.3 831.5
08/05 20:30 26.3 83 20.55 23.2 24 35 1011.9 0 44.1 42.3 83.1 220.0 244.6 850.0
08/05 20:20 26.6 81 20.39 23.1 20 26 1011.9 0 43.7 41.9 82.0 217.1 241.1 837.9
08/05 20:10 26.8 79 20.11 22.8 26 32 1011.8 0 43.1 41.2 80.5 213.0 236.1 820.5
08/05 20:00 26.9 78 19.96 22.7 24 32 1011.7 0 42.8 40.9 79.7 210.8 233.5 811.3
08/05 19:50 27 77 19.82 22.6 32 37 1011.6 0 42.5 40.6 78.9 208.8 231.0 802.7
08/05 19:40 27 77 19.82 22.6 28 32 1011.4 0 42.5 40.5 78.9 208.7 231.0 802.6
08/05 19:30 27 77 19.82 22.6 24 30 1011.3 0 42.5 40.5 78.9 208.7 231.0 802.6
08/05 19:20 27 77 19.82 22.6 26 30 1011.2 0 42.5 40.5 78.9 208.7 231.0 802.5
08/05 19:10 27 77 19.82 22.6 28 37 1011 0 42.5 40.5 78.8 208.7 230.9 802.4
08/05 19:00 27.1 77 19.93 22.7 28 37 1010.9 0 42.7 40.7 79.3 209.7 232.3 807.2
08/05 18:50 27.1 78 20.19 22.9 28 32 1010.9 0 43.3 41.2 80.5 213.0 236.3 821.0
08/05 18:40 27 77 19.82 22.6 30 37 1010.6 0 42.5 40.5 78.8 208.6 230.9 802.2
08/05 18:30 27.1 77 19.93 22.7 26 37 1010.5 0 42.7 40.7 79.2 209.7 232.2 806.9
08/05 18:20 27.1 78 20.19 22.9 22 24 1010.5 0 43.3 41.2 80.5 212.9 236.2 820.8
08/05 18:10 27.2 77 20.04 22.8 28 33 1010.4 0 42.9 40.8 79.6 210.8 233.6 811.7
08/05 18:00 27.2 77 20.04 22.8 26 39 1010.4 0 42.9 40.8 79.6 210.8 233.6 811.7
08/05 17:50 27.2 78 20.3 23 30 33 1010.3 0 43.5 41.3 80.9 214.0 237.6 825.5
08/05 17:40 27.3 78 20.41 23.1 24 26 1010.3 0 43.7 41.5 81.3 215.1 238.9 830.3
08/05 17:30 27.5 77 20.37 23.1 26 35 1010.1 0 43.6 41.3 80.8 214.0 237.7 825.9
08/05 17:20 27.8 75 20.17 23 26 35 1010.1 0 43.2 40.8 79.6 210.7 233.6 812.0
08/05 17:10 28.1 74 20.24 23 28 30 1009.9 0 43.3 40.7 79.6 210.7 233.7 812.4
08/05 17:00 28.2 74 20.35 23.1 28 39 1009.8 0 43.5 40.9 80.0 211.7 235.1 817.1
08/05 16:50 28.4 73 20.29 23.1 28 32 1009.8 0 43.3 40.7 79.5 210.4 233.6 811.7
08/05 16:40 27.9 74 20.02 22.8 26 32 1009.8 0 42.8 40.4 78.8 208.5 231.0 802.8
08/05 16:30 28.2 72 19.8 22.7 28 37 1009.7 0 42.3 39.9 77.4 204.9 226.8 788.1
08/05 16:20 28.2 72 19.8 22.7 30 33 1009.6 0 42.3 39.9 77.4 204.9 226.7 788.0
08/05 16:10 28.7 70 19.78 22.7 30 33 1009.5 0 42.2 39.6 76.8 203.3 224.9 781.8
08/05 16:00 28.2 71 19.52 22.4 30 41 1009.5 0 41.7 39.3 76.1 201.5 222.5 773.4
08/05 15:50 28.8 71 20.17 23 26 30 1009.3 0 43.1 40.2 78.5 207.8 230.4 800.9
08/05 15:40 29.1 68 19.64 22.6 32 33 1009.3 0 41.9 39.1 75.8 200.5 221.6 770.4
08/05 15:30 29.2 69 20.04 22.9 30 41 1009.3 0 42.7 39.8 77.5 205.1 227.3 790.0
08/05 15:20 29.1 72 20.8 23.5 26 30 1009.2 0 44.3 41.3 81.1 214.7 239.0 830.7
08/05 15:10 28.1 74 20.24 23.2 26 30 1009.4 0 43.3 40.7 79.6 210.6 233.7 812.1
08/05 15:00 29.1 71 20.51 23.3 28 35 1009.3 0 43.7 40.7 79.8 211.1 234.6 815.5
08/05 14:50 29.1 72 20.8 23.5 30 35 1009.4 0 44.3 41.3 81.1 214.7 239.0 830.8
08/05 14:40 29.3 68 19.86 22.8 30 35 1009.4 0 42.3 39.4 76.6 202.7 224.3 779.7
08/05 14:30 28.7 71 20.06 23.1 30 46 1009.4 0 42.8 40.1 78.1 206.7 229.1 796.3
08/05 14:20 29.4 69 20.26 23.1 35 39 1009.5 0 43.2 40.1 78.3 207.3 230.0 799.4
08/05 14:10 29.1 71 20.51 23.3 26 30 1009.5 0 43.7 40.7 79.8 211.2 234.6 815.6

Last Refresh: 09-May-2026 06:47:34

Bureau of Meteorology